Raleigh, IL

5:35 PM CST on February 27, 2017 (GMT -0600)
Harrisburg-Raleigh

Weather History for KHSB - January, 2013

Change the Weather History Date:

Thursday, January 24, 2013

  Actual Average (KMWA) Record (KMWA)
Temperature  
Mean Temperature 26 °F -  
Max Temperature 32 °F 42 °F 70 °F (1972)
Min Temperature 19 °F 23 °F -5 °F (2003)
Degree Days  
Heating Degree Days 40    
Moisture  
Dew Point 11 °F    
Average Humidity 52    
Maximum Humidity 69    
Minimum Humidity 37    
Precipitation  
Precipitation 0.00 in - - ()
Sea Level Pressure  
Sea Level Pressure 30.44 in    
Wind  
Wind Speed 11 mph (NE)    
Max Wind Speed 16 mph    
Max Gust Speed 23 mph    
Visibility 10 miles    
Events      
Averages and records for this station are not official NWS values.
T = Trace of Precipitation, MM = Missing Value Source: NWS Daily Summary

Daily Weather History Graph

Daily Weather History Graph

Search for Another Location

Airport or City:

Trip Planner

Search our weather history database for the weather conditions in past years. The results will help you decide how hot, cold, wet, or windy it might be!

Date:

Astronomy

Jan. 24, 2013 Rise Set
Actual Time 7:04 AM CST 5:09 PM CST
Civil Twilight 6:35 AM CST 5:37 PM CST
Nautical Twilight 6:04 AM CST 6:09 PM CST
Astronomical Twilight 5:32 AM CST 6:40 PM CST
Moon 3:11 PM CST (1/24) 5:00 AM CST (1/24)
Length of Visible Light 11h 01m
Length of Day
10h 05m
Waxing Gibbous, 94% of the Moon is Illuminated
Jan 24
Waxing Gibbous
Jan 26
Full
Feb 3
Last Quarter
Feb 10
New
Feb 17
First Quarter

Hourly Weather History & Observations

Time (CST) Temp. Windchill Dew Point Humidity Pressure Visibility Wind Dir Wind Speed Gust Speed Precip Events Conditions
12:15 AM 32.0 °F 23.6 °F 21.2 °F 64% 30.28 in 10.0 mi NNW 10.4 mph - N/A   Clear
12:35 AM 32.0 °F 24.2 °F 21.2 °F 64% 30.30 in 10.0 mi NNW 9.2 mph - N/A   Clear
12:55 AM 30.2 °F 22.6 °F 21.2 °F 69% 30.31 in 10.0 mi NNW 8.1 mph - N/A   Clear
1:15 AM 30.2 °F 20.8 °F 19.4 °F 64% 30.33 in 10.0 mi NNW 11.5 mph 17.3 mph N/A   Clear
1:35 AM 30.2 °F 18.9 °F 15.8 °F 55% 30.33 in 10.0 mi NNW 16.1 mph 23.0 mph N/A   Clear
1:55 AM 28.4 °F 19.1 °F 15.8 °F 59% 30.35 in 10.0 mi NNW 10.4 mph 19.6 mph N/A   Clear
2:15 AM 28.4 °F 19.1 °F 17.6 °F 64% 30.36 in 10.0 mi NNW 10.4 mph - N/A   Clear
2:35 AM 28.4 °F 18.5 °F 17.6 °F 64% 30.38 in 10.0 mi NNW 11.5 mph - N/A   Clear
2:55 AM 28.4 °F 19.7 °F 17.6 °F 64% 30.39 in 10.0 mi North 9.2 mph - N/A   Clear
3:15 AM 26.6 °F 16.8 °F 15.8 °F 64% 30.40 in 10.0 mi North 10.4 mph 23.0 mph N/A   Scattered Clouds
3:35 AM 26.6 °F 15.7 °F 15.8 °F 64% 30.41 in 10.0 mi North 12.7 mph 19.6 mph N/A   Scattered Clouds
3:55 AM 24.8 °F 13.4 °F 14.0 °F 64% 30.41 in 10.0 mi NNE 12.7 mph 19.6 mph N/A   Clear
4:15 AM 23.0 °F 10.6 °F 12.2 °F 63% 30.42 in 10.0 mi North 13.8 mph 21.9 mph N/A   Clear
4:35 AM 23.0 °F 11.1 °F 12.2 °F 63% 30.43 in 10.0 mi North 12.7 mph 17.3 mph N/A   Clear
4:55 AM 21.2 °F 9.5 °F 10.4 °F 63% 30.45 in 10.0 mi North 11.5 mph - N/A   Clear
5:15 AM 21.2 °F 9.5 °F 10.4 °F 63% 30.47 in 10.0 mi North 11.5 mph 16.1 mph N/A   Clear
5:35 AM 21.2 °F 10.1 °F 10.4 °F 63% 30.48 in 10.0 mi NNE 10.4 mph 18.4 mph N/A   Clear
5:55 AM 21.2 °F 9.5 °F 10.4 °F 63% 30.49 in 10.0 mi North 11.5 mph 18.4 mph N/A   Clear
6:15 AM 21.2 °F 9.5 °F 12.2 °F 68% 30.51 in 10.0 mi NNE 11.5 mph 16.1 mph N/A   Clear
6:35 AM 21.2 °F 7.8 °F 10.4 °F 63% 30.52 in 10.0 mi NNE 15.0 mph 20.7 mph N/A   Clear
6:55 AM 19.4 °F 5.5 °F 8.6 °F 63% 30.52 in 10.0 mi NNE 15.0 mph 20.7 mph N/A   Clear
7:15 AM 19.4 °F 7.2 °F 8.6 °F 63% 30.52 in 10.0 mi NNE 11.5 mph 18.4 mph N/A   Clear
7:35 AM 19.4 °F 7.2 °F 5.0 °F 54% 30.52 in 10.0 mi NNE 11.5 mph - N/A   Clear
7:55 AM 21.2 °F 10.1 °F 6.8 °F 54% 30.53 in 10.0 mi NNE 10.4 mph - N/A   Clear
8:15 AM 21.2 °F 9.5 °F 5.0 °F 50% 30.54 in 10.0 mi NNE 11.5 mph - N/A   Clear
8:35 AM 21.2 °F 9.5 °F 5.0 °F 50% 30.54 in 10.0 mi NNE 11.5 mph - N/A   Clear
8:55 AM 23.0 °F 10.1 °F 5.0 °F 46% 30.56 in 10.0 mi NNE 15.0 mph - N/A   Clear
9:15 AM 23.0 °F 10.6 °F 5.0 °F 46% 30.56 in 10.0 mi NE 13.8 mph 17.3 mph N/A   Clear
9:35 AM 23.0 °F 9.6 °F 6.8 °F 50% 30.57 in 10.0 mi NNE 16.1 mph - N/A   Clear
9:55 AM 23.0 °F 11.7 °F 8.6 °F 54% 30.57 in 10.0 mi NE 11.5 mph 19.6 mph N/A   Clear
10:15 AM 23.0 °F 11.7 °F 8.6 °F 54% 30.59 in 10.0 mi NE 11.5 mph 19.6 mph N/A   Clear
10:35 AM 24.8 °F 12.9 °F 10.4 °F 54% 30.59 in 10.0 mi NE 13.8 mph - N/A   Clear
10:55 AM 26.6 °F 17.5 °F 10.4 °F 51% 30.58 in 10.0 mi NE 9.2 mph 17.3 mph N/A   Clear
11:15 AM 26.6 °F 16.8 °F 10.4 °F 51% 30.57 in 10.0 mi NE 10.4 mph - N/A   Clear
11:35 AM 26.6 °F 15.7 °F 10.4 °F 51% 30.56 in 10.0 mi ENE 12.7 mph 18.4 mph N/A   Clear
11:55 AM 28.4 °F 18.5 °F 10.4 °F 47% 30.56 in 10.0 mi ENE 11.5 mph 17.3 mph N/A   Clear
12:15 PM 28.4 °F 18.0 °F 10.4 °F 47% 30.54 in 10.0 mi ENE 12.7 mph - N/A   Clear
12:35 PM 28.4 °F 18.0 °F 12.2 °F 51% 30.52 in 10.0 mi East 12.7 mph 17.3 mph N/A   Clear
12:55 PM 30.2 °F 21.3 °F 12.2 °F 47% 30.52 in 10.0 mi East 10.4 mph 16.1 mph N/A   Clear
1:15 PM 28.4 °F 18.5 °F 12.2 °F 51% 30.51 in 10.0 mi East 11.5 mph 18.4 mph N/A   Clear
1:35 PM 28.4 °F 18.5 °F 12.2 °F 51% 30.50 in 10.0 mi ENE 11.5 mph - N/A   Clear
1:55 PM 28.4 °F 19.1 °F 12.2 °F 51% 30.50 in 10.0 mi ENE 10.4 mph 18.4 mph N/A   Clear
2:15 PM 30.2 °F 19.8 °F 12.2 °F 47% 30.48 in 10.0 mi ENE 13.8 mph - N/A   Clear
2:35 PM 30.2 °F 19.8 °F 10.4 °F 44% 30.47 in 10.0 mi ENE 13.8 mph 19.6 mph N/A   Clear
2:55 PM 30.2 °F 20.2 °F 10.4 °F 44% 30.46 in 10.0 mi East 12.7 mph - N/A   Clear
3:15 PM 30.2 °F 19.3 °F 10.4 °F 44% 30.46 in 10.0 mi East 15.0 mph - N/A   Clear
3:35 PM 28.4 °F 17.5 °F 10.4 °F 47% 30.45 in 10.0 mi East 13.8 mph 17.3 mph N/A   Clear
3:55 PM 28.4 °F 18.0 °F 10.4 °F 47% 30.46 in 10.0 mi ENE 12.7 mph - N/A   Clear
4:15 PM 28.4 °F 18.5 °F 12.2 °F 51% 30.44 in 10.0 mi East 11.5 mph 17.3 mph N/A   Clear
4:35 PM 28.4 °F 18.0 °F 10.4 °F 47% 30.44 in 10.0 mi ENE 12.7 mph - N/A   Clear
4:55 PM 28.4 °F 19.7 °F 10.4 °F 47% 30.44 in 10.0 mi ENE 9.2 mph - N/A   Clear
5:15 PM 28.4 °F 19.7 °F 10.4 °F 47% 30.43 in 10.0 mi East 9.2 mph - N/A   Clear
5:35 PM 28.4 °F 19.7 °F 12.2 °F 51% 30.44 in 10.0 mi East 9.2 mph - N/A   Clear
5:55 PM 28.4 °F 19.7 °F 12.2 °F 51% 30.43 in 10.0 mi East 9.2 mph - N/A   Clear
6:15 PM 28.4 °F 19.7 °F 12.2 °F 51% 30.44 in 10.0 mi East 9.2 mph - N/A   Clear
6:35 PM 28.4 °F 20.4 °F 10.4 °F 47% 30.42 in 10.0 mi East 8.1 mph - N/A   Clear
6:55 PM 28.4 °F 19.7 °F 12.2 °F 51% 30.43 in 10.0 mi East 9.2 mph - N/A   Clear
7:15 PM 28.4 °F 19.7 °F 10.4 °F 47% 30.41 in 10.0 mi East 9.2 mph - N/A   Clear
7:35 PM 28.4 °F 19.1 °F 8.6 °F 43% 30.40 in 10.0 mi ESE 10.4 mph - N/A   Clear
7:55 PM 28.4 °F 19.1 °F 8.6 °F 43% 30.39 in 10.0 mi East 10.4 mph - N/A   Clear
8:15 PM 26.6 °F 16.8 °F 8.6 °F 47% 30.37 in 10.0 mi East 10.4 mph - N/A   Clear
8:35 PM 28.4 °F 19.7 °F 8.6 °F 43% 30.37 in 10.0 mi East 9.2 mph - N/A   Scattered Clouds
8:55 PM 28.4 °F 19.1 °F 6.8 °F 40% 30.37 in 10.0 mi ESE 10.4 mph - N/A   Mostly Cloudy
9:15 PM 28.4 °F 20.4 °F 8.6 °F 43% 30.37 in 10.0 mi East 8.1 mph - N/A   Overcast
9:35 PM 28.4 °F 18.0 °F 6.8 °F 40% 30.36 in 10.0 mi East 12.7 mph - N/A   Overcast
9:55 PM 28.4 °F 18.0 °F 5.0 °F 37% 30.34 in 10.0 mi East 12.7 mph - N/A   Overcast
10:15 PM 28.4 °F 18.0 °F 5.0 °F 37% 30.33 in 10.0 mi ESE 12.7 mph 17.3 mph N/A   Overcast
10:35 PM 28.4 °F 19.7 °F 6.8 °F 40% 30.34 in 10.0 mi ESE 9.2 mph - N/A   Overcast
10:55 PM 28.4 °F 19.1 °F 6.8 °F 40% 30.32 in 10.0 mi ESE 10.4 mph - N/A   Overcast
11:15 PM 28.4 °F 19.1 °F 6.8 °F 40% 30.31 in 10.0 mi ESE 10.4 mph - N/A   Overcast
11:35 PM 28.4 °F 18.0 °F 5.0 °F 37% 30.29 in 10.0 mi ESE 12.7 mph - N/A   Overcast
11:55 PM 28.4 °F 18.5 °F 6.8 °F 40% 30.28 in 10.0 mi ESE 11.5 mph - N/A   Overcast